sensor_id;sensor_type;location;lat;lon;timestamp;P1;durP1;ratioP1;P2;durP2;ratioP2
56629;SDS011;42502;40.732;-74.254;2023-06-14T00:00:46;3.90;;;3.33;;
56629;SDS011;42502;40.732;-74.254;2023-06-14T00:02:48;4.22;;;3.63;;
56629;SDS011;42502;40.732;-74.254;2023-06-14T00:04:49;3.75;;;3.08;;
56629;SDS011;42502;40.732;-74.254;2023-06-14T00:06:52;3.70;;;3.40;;
56629;SDS011;42502;40.732;-74.254;2023-06-14T00:08:56;4.28;;;3.08;;
56629;SDS011;42502;40.732;-74.254;2023-06-14T00:11:03;3.83;;;3.42;;
56629;SDS011;42502;40.732;-74.254;2023-06-14T00:13:04;3.95;;;3.53;;
56629;SDS011;42502;40.732;-74.254;2023-06-14T00:15:05;4.07;;;3.53;;
56629;SDS011;42502;40.732;-74.254;2023-06-14T00:17:07;4.47;;;3.65;;
56629;SDS011;42502;40.732;-74.254;2023-06-14T00:19:09;3.97;;;3.22;;
56629;SDS011;42502;40.732;-74.254;2023-06-14T00:21:10;5.00;;;3.50;;
56629;SDS011;42502;40.732;-74.254;2023-06-14T00:23:12;5.03;;;3.60;;
56629;SDS011;42502;40.732;-74.254;2023-06-14T00:25:13;5.93;;;3.92;;
56629;SDS011;42502;40.732;-74.254;2023-06-14T00:27:14;6.82;;;4.07;;
56629;SDS011;42502;40.732;-74.254;2023-06-14T00:29:14;6.30;;;4.10;;
56629;SDS011;42502;40.732;-74.254;2023-06-14T00:31:18;5.88;;;4.38;;
56629;SDS011;42502;40.732;-74.254;2023-06-14T00:33:19;4.40;;;4.00;;
56629;SDS011;42502;40.732;-74.254;2023-06-14T00:35:20;8.55;;;4.43;;
56629;SDS011;42502;40.732;-74.254;2023-06-14T00:37:21;8.82;;;4.85;;
56629;SDS011;42502;40.732;-74.254;2023-06-14T00:39:25;6.75;;;4.50;;
56629;SDS011;42502;40.732;-74.254;2023-06-14T00:41:26;6.32;;;5.07;;
56629;SDS011;42502;40.732;-74.254;2023-06-14T00:43:27;5.28;;;4.75;;
56629;SDS011;42502;40.732;-74.254;2023-06-14T00:45:28;5.50;;;4.70;;
56629;SDS011;42502;40.732;-74.254;2023-06-14T00:47:29;7.75;;;4.65;;
56629;SDS011;42502;40.732;-74.254;2023-06-14T00:49:29;7.35;;;5.28;;
56629;SDS011;42502;40.732;-74.254;2023-06-14T00:51:31;8.02;;;4.53;;
56629;SDS011;42502;40.732;-74.254;2023-06-14T00:53:35;7.30;;;5.03;;
56629;SDS011;42502;40.732;-74.254;2023-06-14T00:55:35;8.48;;;5.00;;
56629;SDS011;42502;40.732;-74.254;2023-06-14T00:57:36;7.47;;;4.72;;
56629;SDS011;42502;40.732;-74.254;2023-06-14T00:59:47;6.65;;;4.50;;
56629;SDS011;42502;40.732;-74.254;2023-06-14T01:01:49;6.70;;;4.22;;
56629;SDS011;42502;40.732;-74.254;2023-06-14T01:03:50;6.78;;;4.85;;
56629;SDS011;42502;40.732;-74.254;2023-06-14T01:05:56;6.03;;;4.50;;
56629;SDS011;42502;40.732;-74.254;2023-06-14T01:08:31;6.85;;;4.38;;
56629;SDS011;42502;40.732;-74.254;2023-06-14T01:10:47;5.60;;;4.47;;
56629;SDS011;42502;40.732;-74.254;2023-06-14T01:13:05;8.40;;;4.38;;
56629;SDS011;42502;40.732;-74.254;2023-06-14T01:15:13;6.30;;;4.53;;
56629;SDS011;42502;40.732;-74.254;2023-06-14T01:17:14;5.40;;;4.60;;
56629;SDS011;42502;40.732;-74.254;2023-06-14T01:19:17;8.02;;;4.50;;
56629;SDS011;42502;40.732;-74.254;2023-06-14T01:21:22;7.85;;;4.85;;
56629;SDS011;42502;40.732;-74.254;2023-06-14T01:23:24;15.63;;;5.07;;
56629;SDS011;42502;40.732;-74.254;2023-06-14T01:25:32;11.00;;;5.18;;
56629;SDS011;42502;40.732;-74.254;2023-06-14T01:27:35;16.15;;;5.57;;
56629;SDS011;42502;40.732;-74.254;2023-06-14T01:29:41;25.77;;;5.57;;
56629;SDS011;42502;40.732;-74.254;2023-06-14T01:31:45;22.25;;;5.85;;
56629;SDS011;42502;40.732;-74.254;2023-06-14T01:33:50;19.98;;;5.20;;
56629;SDS011;42502;40.732;-74.254;2023-06-14T01:35:53;11.52;;;4.95;;
56629;SDS011;42502;40.732;-74.254;2023-06-14T01:37:55;11.23;;;5.10;;
56629;SDS011;42502;40.732;-74.254;2023-06-14T01:39:57;9.05;;;4.28;;
56629;SDS011;42502;40.732;-74.254;2023-06-14T01:41:59;12.77;;;4.22;;
56629;SDS011;42502;40.732;-74.254;2023-06-14T01:44:01;6.82;;;4.82;;
56629;SDS011;42502;40.732;-74.254;2023-06-14T01:46:05;7.80;;;4.40;;
56629;SDS011;42502;40.732;-74.254;2023-06-14T01:48:09;8.02;;;4.55;;
56629;SDS011;42502;40.732;-74.254;2023-06-14T01:50:11;8.38;;;4.15;;
56629;SDS011;42502;40.732;-74.254;2023-06-14T01:52:13;8.48;;;4.50;;
56629;SDS011;42502;40.732;-74.254;2023-06-14T01:54:14;10.65;;;4.88;;
56629;SDS011;42502;40.732;-74.254;2023-06-14T01:56:15;6.50;;;4.20;;
56629;SDS011;42502;40.732;-74.254;2023-06-14T01:58:19;6.00;;;4.25;;
56629;SDS011;42502;40.732;-74.254;2023-06-14T02:00:20;7.90;;;3.97;;
56629;SDS011;42502;40.732;-74.254;2023-06-14T02:02:26;5.03;;;3.83;;
56629;SDS011;42502;40.732;-74.254;2023-06-14T02:04:27;6.13;;;3.92;;
56629;SDS011;42502;40.732;-74.254;2023-06-14T02:06:28;7.90;;;4.38;;
56629;SDS011;42502;40.732;-74.254;2023-06-14T02:08:29;6.72;;;4.18;;
56629;SDS011;42502;40.732;-74.254;2023-06-14T02:10:29;9.00;;;4.47;;
56629;SDS011;42502;40.732;-74.254;2023-06-14T02:12:30;5.43;;;3.88;;
56629;SDS011;42502;40.732;-74.254;2023-06-14T02:14:31;5.43;;;3.75;;
56629;SDS011;42502;40.732;-74.254;2023-06-14T02:16:32;5.75;;;4.30;;
56629;SDS011;42502;40.732;-74.254;2023-06-14T02:18:36;6.80;;;4.25;;
56629;SDS011;42502;40.732;-74.254;2023-06-14T02:20:37;8.60;;;3.88;;
56629;SDS011;42502;40.732;-74.254;2023-06-14T02:22:38;8.10;;;4.25;;
56629;SDS011;42502;40.732;-74.254;2023-06-14T02:24:39;6.05;;;3.92;;
56629;SDS011;42502;40.732;-74.254;2023-06-14T02:26:42;10.23;;;4.22;;
56629;SDS011;42502;40.732;-74.254;2023-06-14T02:28:43;12.02;;;4.68;;
56629;SDS011;42502;40.732;-74.254;2023-06-14T02:30:44;4.18;;;3.72;;
56629;SDS011;42502;40.732;-74.254;2023-06-14T02:32:56;12.68;;;4.40;;
56629;SDS011;42502;40.732;-74.254;2023-06-14T02:34:57;6.68;;;4.20;;
56629;SDS011;42502;40.732;-74.254;2023-06-14T02:37:01;3.97;;;3.42;;
56629;SDS011;42502;40.732;-74.254;2023-06-14T02:39:05;5.30;;;4.00;;
56629;SDS011;42502;40.732;-74.254;2023-06-14T02:41:06;5.95;;;3.72;;
56629;SDS011;42502;40.732;-74.254;2023-06-14T02:43:06;7.55;;;3.95;;
56629;SDS011;42502;40.732;-74.254;2023-06-14T02:45:07;5.35;;;4.15;;
56629;SDS011;42502;40.732;-74.254;2023-06-14T02:47:12;7.35;;;3.95;;
56629;SDS011;42502;40.732;-74.254;2023-06-14T02:49:13;5.18;;;4.13;;
56629;SDS011;42502;40.732;-74.254;2023-06-14T02:51:14;3.97;;;3.53;;
56629;SDS011;42502;40.732;-74.254;2023-06-14T02:53:15;5.15;;;3.63;;
56629;SDS011;42502;40.732;-74.254;2023-06-14T02:55:16;6.22;;;3.92;;
56629;SDS011;42502;40.732;-74.254;2023-06-14T02:57:16;7.40;;;4.32;;
56629;SDS011;42502;40.732;-74.254;2023-06-14T02:59:17;6.75;;;4.13;;
56629;SDS011;42502;40.732;-74.254;2023-06-14T03:01:19;6.47;;;3.85;;
56629;SDS011;42502;40.732;-74.254;2023-06-14T03:03:20;7.70;;;3.90;;
56629;SDS011;42502;40.732;-74.254;2023-06-14T03:05:23;12.25;;;4.28;;
56629;SDS011;42502;40.732;-74.254;2023-06-14T03:07:24;7.53;;;3.83;;
56629;SDS011;42502;40.732;-74.254;2023-06-14T03:09:27;11.88;;;4.45;;
56629;SDS011;42502;40.732;-74.254;2023-06-14T03:11:28;6.60;;;3.80;;
56629;SDS011;42502;40.732;-74.254;2023-06-14T03:13:33;9.13;;;3.70;;
56629;SDS011;42502;40.732;-74.254;2023-06-14T03:15:38;4.00;;;3.50;;
56629;SDS011;42502;40.732;-74.254;2023-06-14T03:17:41;5.63;;;3.70;;
56629;SDS011;42502;40.732;-74.254;2023-06-14T03:19:45;6.53;;;4.15;;
56629;SDS011;42502;40.732;-74.254;2023-06-14T03:21:46;7.30;;;3.60;;
56629;SDS011;42502;40.732;-74.254;2023-06-14T03:23:49;6.22;;;3.70;;
56629;SDS011;42502;40.732;-74.254;2023-06-14T03:25:50;7.22;;;3.85;;
56629;SDS011;42502;40.732;-74.254;2023-06-14T03:27:54;5.43;;;3.47;;
56629;SDS011;42502;40.732;-74.254;2023-06-14T03:30:00;5.55;;;3.30;;
56629;SDS011;42502;40.732;-74.254;2023-06-14T03:32:02;6.07;;;3.80;;
56629;SDS011;42502;40.732;-74.254;2023-06-14T03:34:06;4.45;;;3.35;;
56629;SDS011;42502;40.732;-74.254;2023-06-14T03:36:06;4.90;;;3.33;;
56629;SDS011;42502;40.732;-74.254;2023-06-14T03:38:07;4.93;;;3.95;;
56629;SDS011;42502;40.732;-74.254;2023-06-14T03:40:12;6.50;;;3.45;;
56629;SDS011;42502;40.732;-74.254;2023-06-14T03:42:14;6.82;;;3.53;;
56629;SDS011;42502;40.732;-74.254;2023-06-14T03:44:15;8.48;;;3.30;;
56629;SDS011;42502;40.732;-74.254;2023-06-14T03:46:22;6.63;;;3.22;;
56629;SDS011;42502;40.732;-74.254;2023-06-14T03:48:25;5.22;;;3.20;;
56629;SDS011;42502;40.732;-74.254;2023-06-14T03:50:26;5.85;;;3.33;;
56629;SDS011;42502;40.732;-74.254;2023-06-14T03:52:27;4.38;;;3.65;;
56629;SDS011;42502;40.732;-74.254;2023-06-14T03:54:28;4.50;;;2.95;;
56629;SDS011;42502;40.732;-74.254;2023-06-14T03:56:32;4.25;;;3.15;;
56629;SDS011;42502;40.732;-74.254;2023-06-14T03:58:33;3.35;;;3.03;;
56629;SDS011;42502;40.732;-74.254;2023-06-14T04:00:34;4.55;;;2.50;;
56629;SDS011;42502;40.732;-74.254;2023-06-14T04:02:38;5.55;;;3.50;;
56629;SDS011;42502;40.732;-74.254;2023-06-14T04:04:39;4.95;;;3.05;;
56629;SDS011;42502;40.732;-74.254;2023-06-14T04:06:44;4.05;;;3.50;;
56629;SDS011;42502;40.732;-74.254;2023-06-14T04:08:52;5.57;;;3.22;;
56629;SDS011;42502;40.732;-74.254;2023-06-14T04:10:53;3.67;;;3.20;;
56629;SDS011;42502;40.732;-74.254;2023-06-14T04:12:57;5.07;;;3.47;;
56629;SDS011;42502;40.732;-74.254;2023-06-14T04:14:58;3.10;;;2.88;;
56629;SDS011;42502;40.732;-74.254;2023-06-14T04:16:58;3.17;;;2.88;;
56629;SDS011;42502;40.732;-74.254;2023-06-14T04:19:00;4.43;;;3.88;;
56629;SDS011;42502;40.732;-74.254;2023-06-14T04:21:03;3.33;;;2.95;;
56629;SDS011;42502;40.732;-74.254;2023-06-14T04:23:11;5.45;;;3.03;;
56629;SDS011;42502;40.732;-74.254;2023-06-14T04:25:13;3.03;;;2.75;;
56629;SDS011;42502;40.732;-74.254;2023-06-14T04:27:15;5.13;;;2.95;;
56629;SDS011;42502;40.732;-74.254;2023-06-14T04:29:27;4.07;;;3.10;;
56629;SDS011;42502;40.732;-74.254;2023-06-14T04:31:29;3.28;;;2.97;;
56629;SDS011;42502;40.732;-74.254;2023-06-14T04:33:36;3.92;;;2.97;;
56629;SDS011;42502;40.732;-74.254;2023-06-14T04:35:43;4.60;;;2.80;;
56629;SDS011;42502;40.732;-74.254;2023-06-14T04:37:47;3.08;;;2.78;;
56629;SDS011;42502;40.732;-74.254;2023-06-14T04:39:48;2.97;;;2.67;;
56629;SDS011;42502;40.732;-74.254;2023-06-14T04:41:50;3.67;;;3.30;;
56629;SDS011;42502;40.732;-74.254;2023-06-14T04:43:57;3.15;;;2.83;;
56629;SDS011;42502;40.732;-74.254;2023-06-14T04:46:01;4.93;;;2.97;;
56629;SDS011;42502;40.732;-74.254;2023-06-14T04:48:03;3.25;;;2.95;;
56629;SDS011;42502;40.732;-74.254;2023-06-14T04:50:05;3.20;;;2.90;;
56629;SDS011;42502;40.732;-74.254;2023-06-14T04:52:06;3.42;;;3.03;;
56629;SDS011;42502;40.732;-74.254;2023-06-14T04:54:10;3.25;;;2.95;;
56629;SDS011;42502;40.732;-74.254;2023-06-14T04:56:14;2.78;;;2.58;;
56629;SDS011;42502;40.732;-74.254;2023-06-14T04:58:15;3.65;;;3.03;;
56629;SDS011;42502;40.732;-74.254;2023-06-14T05:00:16;3.30;;;3.00;;
56629;SDS011;42502;40.732;-74.254;2023-06-14T05:02:23;3.53;;;3.20;;
56629;SDS011;42502;40.732;-74.254;2023-06-14T05:04:27;4.90;;;2.60;;
56629;SDS011;42502;40.732;-74.254;2023-06-14T05:06:28;3.03;;;2.70;;
56629;SDS011;42502;40.732;-74.254;2023-06-14T05:08:30;3.88;;;3.03;;
56629;SDS011;42502;40.732;-74.254;2023-06-14T05:10:31;3.15;;;2.85;;
56629;SDS011;42502;40.732;-74.254;2023-06-14T05:12:34;3.03;;;2.83;;
56629;SDS011;42502;40.732;-74.254;2023-06-14T05:14:36;3.22;;;2.92;;
56629;SDS011;42502;40.732;-74.254;2023-06-14T05:16:37;3.78;;;3.05;;
56629;SDS011;42502;40.732;-74.254;2023-06-14T05:18:39;3.42;;;3.13;;
56629;SDS011;42502;40.732;-74.254;2023-06-14T05:20:42;3.05;;;2.50;;
56629;SDS011;42502;40.732;-74.254;2023-06-14T05:22:43;3.40;;;3.10;;
56629;SDS011;42502;40.732;-74.254;2023-06-14T05:24:44;2.85;;;2.50;;
56629;SDS011;42502;40.732;-74.254;2023-06-14T05:26:49;2.60;;;2.40;;
56629;SDS011;42502;40.732;-74.254;2023-06-14T05:28:49;3.17;;;2.85;;
56629;SDS011;42502;40.732;-74.254;2023-06-14T05:30:56;3.10;;;2.80;;
56629;SDS011;42502;40.732;-74.254;2023-06-14T05:32:58;3.00;;;2.70;;
56629;SDS011;42502;40.732;-74.254;2023-06-14T05:35:01;3.42;;;3.13;;
56629;SDS011;42502;40.732;-74.254;2023-06-14T05:37:06;3.70;;;2.38;;
56629;SDS011;42502;40.732;-74.254;2023-06-14T05:39:09;4.15;;;2.83;;
56629;SDS011;42502;40.732;-74.254;2023-06-14T05:41:10;2.70;;;2.50;;
56629;SDS011;42502;40.732;-74.254;2023-06-14T05:43:11;3.17;;;2.88;;
56629;SDS011;42502;40.732;-74.254;2023-06-14T05:45:21;3.42;;;3.13;;
56629;SDS011;42502;40.732;-74.254;2023-06-14T05:47:22;3.13;;;2.83;;
56629;SDS011;42502;40.732;-74.254;2023-06-14T05:49:23;3.38;;;3.08;;
56629;SDS011;42502;40.732;-74.254;2023-06-14T05:51:23;2.58;;;2.38;;
56629;SDS011;42502;40.732;-74.254;2023-06-14T05:53:30;3.15;;;2.72;;
56629;SDS011;42502;40.732;-74.254;2023-06-14T05:55:34;2.85;;;2.65;;
56629;SDS011;42502;40.732;-74.254;2023-06-14T05:57:36;4.13;;;2.83;;
56629;SDS011;42502;40.732;-74.254;2023-06-14T05:59:36;3.03;;;2.72;;
56629;SDS011;42502;40.732;-74.254;2023-06-14T06:01:37;3.17;;;2.88;;
56629;SDS011;42502;40.732;-74.254;2023-06-14T06:03:40;3.30;;;3.00;;
56629;SDS011;42502;40.732;-74.254;2023-06-14T06:05:47;2.70;;;2.50;;
56629;SDS011;42502;40.732;-74.254;2023-06-14T06:07:51;2.95;;;2.63;;
56629;SDS011;42502;40.732;-74.254;2023-06-14T06:09:52;2.70;;;2.50;;
56629;SDS011;42502;40.732;-74.254;2023-06-14T06:11:53;2.88;;;2.67;;
56629;SDS011;42502;40.732;-74.254;2023-06-14T06:13:54;3.05;;;2.85;;
56629;SDS011;42502;40.732;-74.254;2023-06-14T06:15:54;3.20;;;2.90;;
56629;SDS011;42502;40.732;-74.254;2023-06-14T06:17:56;2.75;;;2.55;;
56629;SDS011;42502;40.732;-74.254;2023-06-14T06:19:57;2.80;;;2.53;;
56629;SDS011;42502;40.732;-74.254;2023-06-14T06:21:58;2.47;;;2.28;;
56629;SDS011;42502;40.732;-74.254;2023-06-14T06:23:58;3.22;;;2.92;;
56629;SDS011;42502;40.732;-74.254;2023-06-14T06:26:03;3.30;;;3.00;;
56629;SDS011;42502;40.732;-74.254;2023-06-14T06:28:04;2.95;;;2.72;;
56629;SDS011;42502;40.732;-74.254;2023-06-14T06:30:05;3.13;;;2.88;;
56629;SDS011;42502;40.732;-74.254;2023-06-14T06:32:09;2.97;;;2.75;;
56629;SDS011;42502;40.732;-74.254;2023-06-14T06:34:10;3.70;;;3.35;;
56629;SDS011;42502;40.732;-74.254;2023-06-14T06:36:11;4.05;;;2.97;;
56629;SDS011;42502;40.732;-74.254;2023-06-14T06:38:21;3.30;;;3.00;;
56629;SDS011;42502;40.732;-74.254;2023-06-14T06:40:25;3.20;;;2.95;;
56629;SDS011;42502;40.732;-74.254;2023-06-14T06:42:26;3.13;;;2.80;;
56629;SDS011;42502;40.732;-74.254;2023-06-14T06:44:27;3.00;;;2.80;;
56629;SDS011;42502;40.732;-74.254;2023-06-14T06:46:27;3.42;;;3.13;;
56629;SDS011;42502;40.732;-74.254;2023-06-14T06:48:28;3.40;;;2.90;;
56629;SDS011;42502;40.732;-74.254;2023-06-14T06:50:29;3.50;;;3.20;;
56629;SDS011;42502;40.732;-74.254;2023-06-14T06:52:30;3.65;;;2.95;;
56629;SDS011;42502;40.732;-74.254;2023-06-14T06:54:34;3.30;;;3.00;;
56629;SDS011;42502;40.732;-74.254;2023-06-14T06:56:35;3.90;;;3.60;;
56629;SDS011;42502;40.732;-74.254;2023-06-14T06:58:39;3.90;;;3.30;;
56629;SDS011;42502;40.732;-74.254;2023-06-14T07:00:39;3.28;;;2.97;;
56629;SDS011;42502;40.732;-74.254;2023-06-14T07:02:41;4.00;;;3.70;;
56629;SDS011;42502;40.732;-74.254;2023-06-14T07:04:41;4.53;;;4.05;;
56629;SDS011;42502;40.732;-74.254;2023-06-14T07:06:45;3.45;;;3.15;;
56629;SDS011;42502;40.732;-74.254;2023-06-14T07:08:47;4.18;;;3.70;;
56629;SDS011;42502;40.732;-74.254;2023-06-14T07:10:50;4.35;;;3.95;;
56629;SDS011;42502;40.732;-74.254;2023-06-14T07:12:51;3.88;;;3.47;;
56629;SDS011;42502;40.732;-74.254;2023-06-14T07:14:52;4.40;;;3.47;;
56629;SDS011;42502;40.732;-74.254;2023-06-14T07:16:53;9.38;;;3.78;;
56629;SDS011;42502;40.732;-74.254;2023-06-14T07:18:54;5.40;;;4.15;;
56629;SDS011;42502;40.732;-74.254;2023-06-14T07:20:55;5.38;;;3.72;;
56629;SDS011;42502;40.732;-74.254;2023-06-14T07:22:57;4.38;;;3.97;;
56629;SDS011;42502;40.732;-74.254;2023-06-14T07:24:57;4.90;;;4.25;;
56629;SDS011;42502;40.732;-74.254;2023-06-14T07:26:58;4.82;;;4.35;;
56629;SDS011;42502;40.732;-74.254;2023-06-14T07:28:59;5.55;;;4.75;;
56629;SDS011;42502;40.732;-74.254;2023-06-14T07:31:03;4.57;;;3.95;;
56629;SDS011;42502;40.732;-74.254;2023-06-14T07:33:03;4.60;;;4.20;;
56629;SDS011;42502;40.732;-74.254;2023-06-14T07:35:08;5.22;;;4.68;;
56629;SDS011;42502;40.732;-74.254;2023-06-14T07:37:09;5.70;;;4.43;;
56629;SDS011;42502;40.732;-74.254;2023-06-14T07:39:13;5.72;;;5.15;;
56629;SDS011;42502;40.732;-74.254;2023-06-14T07:41:17;6.22;;;5.00;;
56629;SDS011;42502;40.732;-74.254;2023-06-14T07:43:23;6.20;;;5.57;;
56629;SDS011;42502;40.732;-74.254;2023-06-14T07:45:24;6.60;;;5.22;;
56629;SDS011;42502;40.732;-74.254;2023-06-14T07:47:25;6.00;;;5.40;;
56629;SDS011;42502;40.732;-74.254;2023-06-14T07:49:28;5.72;;;5.18;;
56629;SDS011;42502;40.732;-74.254;2023-06-14T07:51:29;8.05;;;5.82;;
56629;SDS011;42502;40.732;-74.254;2023-06-14T07:53:33;6.60;;;5.63;;
56629;SDS011;42502;40.732;-74.254;2023-06-14T07:55:34;6.82;;;5.43;;
56629;SDS011;42502;40.732;-74.254;2023-06-14T07:57:43;6.53;;;5.63;;
56629;SDS011;42502;40.732;-74.254;2023-06-14T07:59:44;6.88;;;6.13;;
56629;SDS011;42502;40.732;-74.254;2023-06-14T08:01:48;7.38;;;6.18;;
56629;SDS011;42502;40.732;-74.254;2023-06-14T08:03:49;6.40;;;5.63;;
56629;SDS011;42502;40.732;-74.254;2023-06-14T08:05:52;6.88;;;5.45;;
56629;SDS011;42502;40.732;-74.254;2023-06-14T08:07:59;7.70;;;6.03;;
56629;SDS011;42502;40.732;-74.254;2023-06-14T08:10:00;8.00;;;6.22;;
56629;SDS011;42502;40.732;-74.254;2023-06-14T08:12:01;8.68;;;6.72;;
56629;SDS011;42502;40.732;-74.254;2023-06-14T08:14:04;8.77;;;6.57;;
56629;SDS011;42502;40.732;-74.254;2023-06-14T08:16:05;9.60;;;7.10;;
56629;SDS011;42502;40.732;-74.254;2023-06-14T08:18:06;9.70;;;7.38;;
56629;SDS011;42502;40.732;-74.254;2023-06-14T08:20:13;8.07;;;6.55;;
56629;SDS011;42502;40.732;-74.254;2023-06-14T08:22:17;9.60;;;6.65;;
56629;SDS011;42502;40.732;-74.254;2023-06-14T08:24:18;10.05;;;7.43;;
56629;SDS011;42502;40.732;-74.254;2023-06-14T08:26:24;9.85;;;7.68;;
56629;SDS011;42502;40.732;-74.254;2023-06-14T08:28:29;9.13;;;7.28;;
56629;SDS011;42502;40.732;-74.254;2023-06-14T08:30:30;10.48;;;7.75;;
56629;SDS011;42502;40.732;-74.254;2023-06-14T08:32:30;9.98;;;8.25;;
56629;SDS011;42502;40.732;-74.254;2023-06-14T08:34:31;9.95;;;8.00;;
56629;SDS011;42502;40.732;-74.254;2023-06-14T08:36:35;10.70;;;8.10;;
56629;SDS011;42502;40.732;-74.254;2023-06-14T08:38:42;10.45;;;8.35;;
56629;SDS011;42502;40.732;-74.254;2023-06-14T08:40:43;12.27;;;8.95;;
56629;SDS011;42502;40.732;-74.254;2023-06-14T08:42:52;11.17;;;8.17;;
56629;SDS011;42502;40.732;-74.254;2023-06-14T08:44:56;10.70;;;7.93;;
56629;SDS011;42502;40.732;-74.254;2023-06-14T08:46:57;11.27;;;8.35;;
56629;SDS011;42502;40.732;-74.254;2023-06-14T08:49:03;10.75;;;8.23;;
56629;SDS011;42502;40.732;-74.254;2023-06-14T08:51:06;10.77;;;8.98;;
56629;SDS011;42502;40.732;-74.254;2023-06-14T08:53:13;10.65;;;8.65;;
56629;SDS011;42502;40.732;-74.254;2023-06-14T08:55:23;11.93;;;9.57;;
56629;SDS011;42502;40.732;-74.254;2023-06-14T08:57:29;10.65;;;8.75;;
56629;SDS011;42502;40.732;-74.254;2023-06-14T08:59:34;11.85;;;9.48;;
56629;SDS011;42502;40.732;-74.254;2023-06-14T09:01:39;11.30;;;9.10;;
56629;SDS011;42502;40.732;-74.254;2023-06-14T09:03:46;12.27;;;9.70;;
56629;SDS011;42502;40.732;-74.254;2023-06-14T09:05:48;13.88;;;10.00;;
56629;SDS011;42502;40.732;-74.254;2023-06-14T09:07:50;11.98;;;9.15;;
56629;SDS011;42502;40.732;-74.254;2023-06-14T09:10:10;13.13;;;9.80;;
56629;SDS011;42502;40.732;-74.254;2023-06-14T09:12:15;14.73;;;9.88;;
56629;SDS011;42502;40.732;-74.254;2023-06-14T09:14:20;14.35;;;10.35;;
56629;SDS011;42502;40.732;-74.254;2023-06-14T09:16:32;12.73;;;9.70;;
56629;SDS011;42502;40.732;-74.254;2023-06-14T09:18:37;15.63;;;10.45;;
56629;SDS011;42502;40.732;-74.254;2023-06-14T09:20:39;15.15;;;10.40;;
56629;SDS011;42502;40.732;-74.254;2023-06-14T09:22:41;14.27;;;10.82;;
56629;SDS011;42502;40.732;-74.254;2023-06-14T09:24:42;14.75;;;10.50;;
56629;SDS011;42502;40.732;-74.254;2023-06-14T09:26:43;13.68;;;10.18;;
56629;SDS011;42502;40.732;-74.254;2023-06-14T09:28:47;14.63;;;10.93;;
56629;SDS011;42502;40.732;-74.254;2023-06-14T09:30:54;14.52;;;10.38;;
56629;SDS011;42502;40.732;-74.254;2023-06-14T09:32:55;13.20;;;10.07;;
56629;SDS011;42502;40.732;-74.254;2023-06-14T09:34:56;14.32;;;10.48;;
56629;SDS011;42502;40.732;-74.254;2023-06-14T09:36:58;15.70;;;10.70;;
56629;SDS011;42502;40.732;-74.254;2023-06-14T09:39:00;14.07;;;11.27;;
56629;SDS011;42502;40.732;-74.254;2023-06-14T09:41:06;16.48;;;12.00;;
56629;SDS011;42502;40.732;-74.254;2023-06-14T09:43:09;15.73;;;11.23;;
56629;SDS011;42502;40.732;-74.254;2023-06-14T09:45:10;14.88;;;11.07;;
56629;SDS011;42502;40.732;-74.254;2023-06-14T09:47:19;17.05;;;11.93;;
56629;SDS011;42502;40.732;-74.254;2023-06-14T09:49:27;18.17;;;11.80;;
56629;SDS011;42502;40.732;-74.254;2023-06-14T09:51:34;13.80;;;10.90;;
56629;SDS011;42502;40.732;-74.254;2023-06-14T09:53:37;15.25;;;11.10;;
56629;SDS011;42502;40.732;-74.254;2023-06-14T09:55:41;15.25;;;11.27;;
56629;SDS011;42502;40.732;-74.254;2023-06-14T09:57:45;16.83;;;12.15;;
56629;SDS011;42502;40.732;-74.254;2023-06-14T09:59:52;16.33;;;11.20;;
56629;SDS011;42502;40.732;-74.254;2023-06-14T10:01:58;14.73;;;11.20;;
56629;SDS011;42502;40.732;-74.254;2023-06-14T10:04:02;16.58;;;11.60;;
56629;SDS011;42502;40.732;-74.254;2023-06-14T10:06:07;15.15;;;11.45;;
56629;SDS011;42502;40.732;-74.254;2023-06-14T10:08:10;15.32;;;11.25;;
56629;SDS011;42502;40.732;-74.254;2023-06-14T10:10:14;17.15;;;11.52;;
56629;SDS011;42502;40.732;-74.254;2023-06-14T10:12:18;15.80;;;10.95;;
56629;SDS011;42502;40.732;-74.254;2023-06-14T10:14:21;16.90;;;12.05;;
56629;SDS011;42502;40.732;-74.254;2023-06-14T10:16:30;15.88;;;11.48;;
56629;SDS011;42502;40.732;-74.254;2023-06-14T10:18:53;17.30;;;11.65;;
56629;SDS011;42502;40.732;-74.254;2023-06-14T10:23:42;16.30;;;12.20;;
56629;SDS011;42502;40.732;-74.254;2023-06-14T10:25:45;15.13;;;11.60;;
56629;SDS011;42502;40.732;-74.254;2023-06-14T10:27:50;18.42;;;12.68;;
56629;SDS011;42502;40.732;-74.254;2023-06-14T10:30:05;15.30;;;11.00;;
56629;SDS011;42502;40.732;-74.254;2023-06-14T10:32:08;15.45;;;11.50;;
56629;SDS011;42502;40.732;-74.254;2023-06-14T10:34:09;18.67;;;12.18;;
56629;SDS011;42502;40.732;-74.254;2023-06-14T10:36:31;16.60;;;11.65;;
56629;SDS011;42502;40.732;-74.254;2023-06-14T10:38:33;17.95;;;12.20;;
56629;SDS011;42502;40.732;-74.254;2023-06-14T10:40:39;17.50;;;12.30;;
56629;SDS011;42502;40.732;-74.254;2023-06-14T10:42:41;15.98;;;11.80;;
56629;SDS011;42502;40.732;-74.254;2023-06-14T10:44:55;27.80;;;13.85;;
56629;SDS011;42502;40.732;-74.254;2023-06-14T10:47:00;21.38;;;13.68;;
56629;SDS011;42502;40.732;-74.254;2023-06-14T10:49:01;17.92;;;12.90;;
56629;SDS011;42502;40.732;-74.254;2023-06-14T10:51:03;19.52;;;13.25;;
56629;SDS011;42502;40.732;-74.254;2023-06-14T10:53:23;22.90;;;14.13;;
56629;SDS011;42502;40.732;-74.254;2023-06-14T10:55:24;22.10;;;14.05;;
56629;SDS011;42502;40.732;-74.254;2023-06-14T10:57:25;23.30;;;14.25;;
56629;SDS011;42502;40.732;-74.254;2023-06-14T10:59:26;24.10;;;13.88;;
56629;SDS011;42502;40.732;-74.254;2023-06-14T11:01:36;21.45;;;13.95;;
56629;SDS011;42502;40.732;-74.254;2023-06-14T11:05:56;21.50;;;13.00;;
56629;SDS011;42502;40.732;-74.254;2023-06-14T11:08:04;24.65;;;14.27;;
56629;SDS011;42502;40.732;-74.254;2023-06-14T11:12:39;21.73;;;13.55;;
56629;SDS011;42502;40.732;-74.254;2023-06-14T11:14:45;18.73;;;12.77;;
56629;SDS011;42502;40.732;-74.254;2023-06-14T11:16:49;22.30;;;12.80;;
56629;SDS011;42502;40.732;-74.254;2023-06-14T11:18:51;16.85;;;11.00;;
56629;SDS011;42502;40.732;-74.254;2023-06-14T11:20:51;21.50;;;11.77;;
56629;SDS011;42502;40.732;-74.254;2023-06-14T11:22:52;16.92;;;11.32;;
56629;SDS011;42502;40.732;-74.254;2023-06-14T11:24:54;19.58;;;11.00;;
56629;SDS011;42502;40.732;-74.254;2023-06-14T11:26:59;33.60;;;10.30;;
56629;SDS011;42502;40.732;-74.254;2023-06-14T11:29:00;17.33;;;10.18;;
56629;SDS011;42502;40.732;-74.254;2023-06-14T11:31:02;22.15;;;10.10;;
56629;SDS011;42502;40.732;-74.254;2023-06-14T11:33:04;16.20;;;9.60;;
56629;SDS011;42502;40.732;-74.254;2023-06-14T11:35:11;17.50;;;10.13;;
56629;SDS011;42502;40.732;-74.254;2023-06-14T11:37:12;20.92;;;9.50;;
56629;SDS011;42502;40.732;-74.254;2023-06-14T11:39:13;18.33;;;8.98;;
56629;SDS011;42502;40.732;-74.254;2023-06-14T11:41:14;18.23;;;8.70;;
56629;SDS011;42502;40.732;-74.254;2023-06-14T11:43:15;13.82;;;8.30;;
56629;SDS011;42502;40.732;-74.254;2023-06-14T11:45:16;14.73;;;8.20;;
56629;SDS011;42502;40.732;-74.254;2023-06-14T11:47:21;13.95;;;8.15;;
56629;SDS011;42502;40.732;-74.254;2023-06-14T11:49:23;12.30;;;7.65;;
56629;SDS011;42502;40.732;-74.254;2023-06-14T11:51:25;15.43;;;8.65;;
56629;SDS011;42502;40.732;-74.254;2023-06-14T11:53:26;12.73;;;7.65;;
56629;SDS011;42502;40.732;-74.254;2023-06-14T11:55:26;15.30;;;8.30;;
56629;SDS011;42502;40.732;-74.254;2023-06-14T11:57:36;12.32;;;7.90;;
56629;SDS011;42502;40.732;-74.254;2023-06-14T11:59:39;12.30;;;7.60;;
56629;SDS011;42502;40.732;-74.254;2023-06-14T12:01:42;11.38;;;7.70;;
56629;SDS011;42502;40.732;-74.254;2023-06-14T12:03:49;11.93;;;7.30;;